createdAt,value
2019-04-27T00:00:08.998Z,21.35
2019-04-27T00:03:02.179Z,38.88
2019-04-27T00:05:38.341Z,25.20
2019-04-27T00:08:21.381Z,26.75
2019-04-27T00:11:05.137Z,36.10
2019-04-27T00:13:40.544Z,26.48
2019-04-27T00:16:18.857Z,33.53
2019-04-27T00:19:11.058Z,25.35
2019-04-27T00:21:50.567Z,33.08
2019-04-27T00:24:21.001Z,34.67
2019-04-27T00:26:54.053Z,37.63
2019-04-27T00:29:26.011Z,31.35
2019-04-27T00:31:58.691Z,32.17
2019-04-27T00:34:29.186Z,36.77
2019-04-27T00:37:21.340Z,24.40
2019-04-27T00:40:14.788Z,28.55
2019-04-27T00:42:45.501Z,28.55
2019-04-27T00:45:15.992Z,22.85
2019-04-27T00:47:56.286Z,27.53
2019-04-27T00:50:18.699Z,30.65
2019-04-27T00:52:49.143Z,32.20
2019-04-27T00:55:20.323Z,24.50
2019-04-27T00:58:13.059Z,28.63
2019-04-27T01:00:53.974Z,38.30
2019-04-27T01:03:43.054Z,35.40
2019-04-27T01:06:14.940Z,33.27
2019-04-27T01:08:45.659Z,30.02
2019-04-27T01:11:16.010Z,32.48
2019-04-27T01:13:46.645Z,27.40
2019-04-27T01:16:21.843Z,35.20
2019-04-27T01:18:49.673Z,33.80
2019-04-27T01:21:20.227Z,27.70
2019-04-27T01:23:50.605Z,32.93
2019-04-27T01:26:39.951Z,37.73
2019-04-27T01:29:13.598Z,32.67
2019-04-27T01:31:44.361Z,26.02
2019-04-27T01:34:14.788Z,30.60
2019-04-27T01:36:45.120Z,37.48
2019-04-27T01:39:18.857Z,39.33
2019-04-27T01:41:49.288Z,26.42
2019-04-27T01:44:19.692Z,27.35
2019-04-27T01:46:50.090Z,30.32
2019-04-27T01:49:20.933Z,31.87
2019-04-27T01:51:51.342Z,27.48
2019-04-27T01:54:23.311Z,38.50
2019-04-27T01:56:53.706Z,32.17
2019-04-27T01:59:24.099Z,23.85
2019-04-27T02:02:23.679Z,27.48
2019-04-27T02:05:13.005Z,32.78
2019-04-27T02:07:44.654Z,36.03
2019-04-27T02:10:16.092Z,27.02
2019-04-27T02:12:46.527Z,34.88
2019-04-27T02:15:19.028Z,26.17
2019-04-27T02:17:51.005Z,29.87
2019-04-27T02:20:21.286Z,25.88
2019-04-27T02:22:51.659Z,35.20
2019-04-27T02:25:22.053Z,31.55
2019-04-27T02:27:59.189Z,46.77
2019-04-27T02:30:57.836Z,30.37
2019-04-27T02:33:34.519Z,34.27
2019-04-27T02:36:04.927Z,27.10
2019-04-27T02:38:35.788Z,47.00
2019-04-27T02:41:10.028Z,42.13
2019-04-27T02:44:04.246Z,39.75
2019-04-27T02:46:34.598Z,33.92
2019-04-27T02:49:07.149Z,32.78
2019-04-27T02:52:00.871Z,42.53
2019-04-27T02:54:31.343Z,24.10
2019-04-27T02:57:01.784Z,33.75
2019-04-27T02:59:32.200Z,33.78
2019-04-27T03:02:21.538Z,35.80
2019-04-27T03:04:51.902Z,37.85
2019-04-27T03:07:22.280Z,26.77
2019-04-27T03:09:52.646Z,30.48
2019-04-27T03:12:29.531Z,45.88
2019-04-27T03:15:22.755Z,46.95
2019-04-27T03:18:01.640Z,43.38
2019-04-27T03:20:54.236Z,53.75
2019-04-27T03:23:25.171Z,40.23
2019-04-27T03:26:26.551Z,42.03
2019-04-27T03:28:57.183Z,34.58
2019-04-27T03:31:27.563Z,42.75
2019-04-27T03:34:04.337Z,33.67
2019-04-27T03:36:31.643Z,36.42
2019-04-27T03:39:02.360Z,43.28
2019-04-27T03:41:33.573Z,47.78
2019-04-27T03:44:03.968Z,30.12
2019-04-27T03:46:34.398Z,41.60
2019-04-27T03:49:05.109Z,34.63
2019-04-27T03:51:49.985Z,54.53
2019-04-27T03:54:29.519Z,46.70
2019-04-27T03:57:19.953Z,43.67
2019-04-27T04:00:19.960Z,40.20
2019-04-27T04:02:50.504Z,43.68
2019-04-27T04:05:20.880Z,36.75
2019-04-27T04:07:51.568Z,42.93
2019-04-27T04:10:23.095Z,40.70
2019-04-27T04:13:13.861Z,38.80
2019-04-27T04:16:03.174Z,36.23
2019-04-27T04:18:52.559Z,45.55
2019-04-27T04:21:23.007Z,48.80
2019-04-27T04:23:54.508Z,49.25
2019-04-27T04:26:32.114Z,42.33
2019-04-27T04:28:59.965Z,58.73
2019-04-27T04:31:33.141Z,52.35
2019-04-27T04:34:02.960Z,52.98
2019-04-27T04:36:33.295Z,54.58
2019-04-27T04:39:12.026Z,31.75
2019-04-27T04:41:54.380Z,33.15
2019-04-27T04:44:43.775Z,44.08
2019-04-27T04:47:51.358Z,40.40
2019-04-27T04:50:22.749Z,31.48
2019-04-27T04:52:53.414Z,29.27
2019-04-27T04:55:23.752Z,34.08
2019-04-27T04:57:54.152Z,28.35
2019-04-27T05:00:25.743Z,37.42
2019-04-27T05:02:56.185Z,27.10
2019-04-27T05:05:26.573Z,28.87
2019-04-27T05:08:00.380Z,38.60
2019-04-27T05:10:31.174Z,33.90
2019-04-27T05:13:01.058Z,30.80
2019-04-27T05:15:31.572Z,29.55
2019-04-27T05:18:01.948Z,26.62
2019-04-27T05:20:58.584Z,38.10
2019-04-27T05:23:29.128Z,33.65
2019-04-27T05:25:59.515Z,41.08
2019-04-27T05:28:29.977Z,26.95
2019-04-27T05:31:00.641Z,29.63
2019-04-27T05:33:31.351Z,25.25
2019-04-27T05:36:03.207Z,29.25
2019-04-27T05:38:33.639Z,28.42
2019-04-27T05:41:04.031Z,32.83
2019-04-27T05:43:40.677Z,22.17
2019-04-27T05:46:59.355Z,26.30
2019-04-27T05:49:41.129Z,35.90
2019-04-27T05:52:29.063Z,28.55
2019-04-27T05:54:59.715Z,35.68
2019-04-27T05:57:31.724Z,25.90
2019-04-27T06:00:02.852Z,35.38
2019-04-27T06:02:34.681Z,28.17
2019-04-27T06:05:08.691Z,32.10
2019-04-27T06:07:39.614Z,35.85
2019-04-27T06:10:10.661Z,28.30
2019-04-27T06:12:41.473Z,33.90
2019-04-27T06:15:12.307Z,35.00
2019-04-27T06:17:42.973Z,33.35
2019-04-27T06:20:14.261Z,41.55
2019-04-27T06:22:45.429Z,36.13
2019-04-27T06:25:16.046Z,39.55
2019-04-27T06:27:46.728Z,37.45
2019-04-27T06:30:17.051Z,39.88
2019-04-27T06:32:49.318Z,41.13
2019-04-27T06:35:19.653Z,37.63
2019-04-27T06:37:50.105Z,42.98
2019-04-27T06:40:20.558Z,44.83
2019-04-27T06:42:50.973Z,44.42
2019-04-27T06:45:21.517Z,61.53
2019-04-27T06:47:51.990Z,37.13
2019-04-27T06:50:22.291Z,54.23
2019-04-27T06:52:52.734Z,46.95
2019-04-27T06:55:25.121Z,48.50
2019-04-27T06:57:55.526Z,45.23
2019-04-27T07:00:25.988Z,50.83
2019-04-27T07:02:56.885Z,51.08
2019-04-27T07:05:28.889Z,46.00
2019-04-27T07:07:59.490Z,48.55
2019-04-27T07:10:29.920Z,44.75
2019-04-27T07:13:00.344Z,46.83
2019-04-27T07:15:30.756Z,48.85
2019-04-27T07:18:01.132Z,55.17
2019-04-27T07:20:31.591Z,47.00
2019-04-27T07:23:02.139Z,42.73
2019-04-27T07:25:32.487Z,50.88
2019-04-27T07:28:02.938Z,48.25
2019-04-27T07:30:33.353Z,43.05
2019-04-27T07:33:03.764Z,52.83
2019-04-27T07:35:34.264Z,45.28
2019-04-27T07:38:06.141Z,66.07
2019-04-27T07:40:39.938Z,49.73
2019-04-27T07:43:22.710Z,46.25
2019-04-27T07:45:53.149Z,59.35
2019-04-27T07:48:23.528Z,52.25
2019-04-27T07:50:53.980Z,53.60
2019-04-27T07:53:24.492Z,45.30
2019-04-27T07:55:54.948Z,47.88
2019-04-27T07:58:25.413Z,58.02
2019-04-27T08:00:55.846Z,51.00
2019-04-27T08:03:26.245Z,48.80
2019-04-27T08:05:58.715Z,48.68
2019-04-27T08:08:28.907Z,55.25
2019-04-27T08:10:59.566Z,57.85
2019-04-27T08:13:30.088Z,50.33
2019-04-27T08:16:00.472Z,49.48
2019-04-27T08:18:30.930Z,49.35
2019-04-27T08:21:01.361Z,53.42
2019-04-27T08:23:32.074Z,56.35
2019-04-27T08:26:04.804Z,53.20
2019-04-27T08:28:51.752Z,53.20
2019-04-27T08:31:29.287Z,39.73
2019-04-27T08:34:00.069Z,45.92
2019-04-27T08:36:30.654Z,47.35
2019-04-27T08:39:01.050Z,44.60
2019-04-27T08:41:33.135Z,41.88
2019-04-27T08:44:03.556Z,47.38
2019-04-27T08:46:33.962Z,45.78
2019-04-27T08:49:04.580Z,45.33
2019-04-27T08:51:36.092Z,45.52
2019-04-27T08:54:06.560Z,37.58
2019-04-27T08:56:37.122Z,38.15
2019-04-27T08:59:07.528Z,48.50
2019-04-27T09:01:39.337Z,42.67
2019-04-27T09:04:11.261Z,45.23
2019-04-27T09:06:43.510Z,45.05
2019-04-27T09:09:29.465Z,54.50
2019-04-27T09:12:19.613Z,51.08
2019-04-27T09:14:55.819Z,40.85
2019-04-27T09:17:45.086Z,41.47
2019-04-27T09:20:34.436Z,43.30
2019-04-27T09:23:04.872Z,54.50
2019-04-27T09:25:35.308Z,54.38
2019-04-27T09:28:05.728Z,48.30
2019-04-27T09:30:36.652Z,44.88
2019-04-27T09:33:07.149Z,43.33
2019-04-27T09:35:37.786Z,49.25
2019-04-27T09:38:08.272Z,43.40
2019-04-27T09:40:39.456Z,55.00
2019-04-27T09:43:09.811Z,41.70
2019-04-27T09:45:41.625Z,42.33
2019-04-27T09:48:12.033Z,43.73
2019-04-27T09:50:42.481Z,37.30
2019-04-27T09:53:12.870Z,39.67
2019-04-27T09:55:43.321Z,40.40
2019-04-27T09:58:13.957Z,34.63
2019-04-27T10:00:45.696Z,40.30
2019-04-27T10:03:16.833Z,49.35
2019-04-27T10:05:47.720Z,38.42
2019-04-27T10:08:18.314Z,31.27
2019-04-27T10:10:48.791Z,42.23
2019-04-27T10:13:20.273Z,33.50
2019-04-27T10:15:50.701Z,33.45
2019-04-27T10:18:21.124Z,38.53
2019-04-27T10:21:00.768Z,36.53
2019-04-27T10:23:23.664Z,34.05
2019-04-27T10:25:55.615Z,33.35
2019-04-27T10:28:26.075Z,32.88
2019-04-27T10:30:56.550Z,35.70
2019-04-27T10:33:27.745Z,46.50
2019-04-27T10:35:58.102Z,50.78
2019-04-27T10:38:29.868Z,34.45
2019-04-27T10:41:00.302Z,35.68
2019-04-27T10:43:30.685Z,40.52
2019-04-27T10:46:01.044Z,40.88
2019-04-27T10:48:31.416Z,45.20
2019-04-27T10:51:01.826Z,40.75
2019-04-27T10:53:32.206Z,40.12
2019-04-27T10:56:02.644Z,41.02
2019-04-27T10:58:33.105Z,36.68
2019-04-27T11:01:05.590Z,36.85
2019-04-27T11:03:55.497Z,34.05
2019-04-27T11:06:37.157Z,34.88
2019-04-27T11:09:11.806Z,36.13
2019-04-27T11:11:42.235Z,36.53
2019-04-27T11:14:12.634Z,33.38
2019-04-27T11:16:43.036Z,37.95
2019-04-27T11:19:13.659Z,33.17
2019-04-27T11:21:44.025Z,28.52
2019-04-27T11:24:14.794Z,29.37
2019-04-27T11:26:46.589Z,33.77
2019-04-27T11:29:17.172Z,38.77
2019-04-27T11:31:47.712Z,33.33
2019-04-27T11:34:18.530Z,36.23
2019-04-27T11:37:03.162Z,28.87
2019-04-27T11:39:33.606Z,30.10
2019-04-27T11:42:04.372Z,35.80
2019-04-27T11:44:35.928Z,32.20
2019-04-27T11:47:06.701Z,39.07
2019-04-27T11:49:37.157Z,28.13
2019-04-27T11:52:07.828Z,31.77
2019-04-27T11:54:39.685Z,39.50
2019-04-27T11:57:10.243Z,30.97
2019-04-27T11:59:40.731Z,35.30
2019-04-27T12:02:11.190Z,35.30
2019-04-27T12:04:41.636Z,32.15
2019-04-27T12:07:12.086Z,29.23
2019-04-27T12:09:42.472Z,34.53
2019-04-27T12:12:18.184Z,30.50
2019-04-27T12:14:47.558Z,38.33
2019-04-27T12:17:17.956Z,27.93
2019-04-27T12:19:50.450Z,32.70
2019-04-27T12:22:20.892Z,34.97
2019-04-27T12:24:51.237Z,35.80
2019-04-27T12:27:58.865Z,31.63
2019-04-27T12:30:33.609Z,27.47
2019-04-27T12:33:04.000Z,35.50
2019-04-27T12:35:34.373Z,27.93
2019-04-27T12:38:05.880Z,31.40
2019-04-27T12:40:36.708Z,31.37
2019-04-27T12:43:07.270Z,35.57
2019-04-27T12:45:41.979Z,34.23
2019-04-27T12:48:10.857Z,39.13
2019-04-27T12:50:41.473Z,33.43
2019-04-27T12:53:17.514Z,40.03
2019-04-27T12:56:13.898Z,37.17
2019-04-27T12:58:51.564Z,37.00
2019-04-27T13:01:22.732Z,39.00
2019-04-27T13:03:53.142Z,47.87
2019-04-27T13:06:23.513Z,32.53
2019-04-27T13:08:55.693Z,38.77
2019-04-27T13:11:28.830Z,33.63
2019-04-27T13:13:59.188Z,37.20
2019-04-27T13:16:30.550Z,34.87
2019-04-27T13:19:00.988Z,36.43
2019-04-27T13:21:31.332Z,37.90
2019-04-27T13:24:05.094Z,34.47
2019-04-27T13:26:36.193Z,32.77
2019-04-27T13:29:06.982Z,34.60
2019-04-27T13:31:37.656Z,36.23
2019-04-27T13:34:08.041Z,39.10
2019-04-27T13:36:38.385Z,41.40
2019-04-27T13:39:09.276Z,35.80
2019-04-27T13:41:39.991Z,34.43
2019-04-27T13:44:10.436Z,44.63
2019-04-27T13:46:58.612Z,42.60
2019-04-27T13:49:48.033Z,34.53
2019-04-27T13:52:29.705Z,41.40
2019-04-27T13:54:58.836Z,36.13
2019-04-27T13:57:29.340Z,36.97
2019-04-27T14:00:01.217Z,37.07
2019-04-27T14:02:34.925Z,42.87
2019-04-27T14:05:06.440Z,49.70
2019-04-27T14:07:36.936Z,43.90
2019-04-27T14:10:09.350Z,45.37
2019-04-27T14:12:39.835Z,39.07
2019-04-27T14:15:10.258Z,38.23
2019-04-27T14:17:40.667Z,41.00
2019-04-27T14:20:11.259Z,39.00
2019-04-27T14:22:41.651Z,42.23
2019-04-27T14:25:12.214Z,37.80
2019-04-27T14:27:42.856Z,40.27
2019-04-27T14:30:16.073Z,39.20
2019-04-27T14:32:46.578Z,37.83
2019-04-27T14:35:18.144Z,38.77
2019-04-27T14:37:50.341Z,36.30
2019-04-27T14:40:22.131Z,41.80
2019-04-27T14:42:53.734Z,40.93
2019-04-27T14:45:25.317Z,38.90
2019-04-27T14:47:55.701Z,42.37
2019-04-27T14:50:26.150Z,44.20
2019-04-27T14:52:59.022Z,39.30
2019-04-27T14:55:30.111Z,38.83
2019-04-27T14:58:00.753Z,37.30
2019-04-27T15:00:31.392Z,42.77
2019-04-27T15:03:01.828Z,36.93
2019-04-27T15:05:32.361Z,38.77
2019-04-27T15:08:06.498Z,44.63
2019-04-27T15:10:36.091Z,37.57
2019-04-27T15:13:08.281Z,36.00
2019-04-27T15:15:39.549Z,41.90
2019-04-27T15:18:09.960Z,47.33
2019-04-27T15:20:44.576Z,41.63
2019-04-27T15:23:15.547Z,41.47
2019-04-27T15:25:47.151Z,45.07
2019-04-27T15:28:22.596Z,38.30
2019-04-27T15:31:26.180Z,43.80
2019-04-27T15:34:02.478Z,41.40
2019-04-27T15:36:41.463Z,39.80
2019-04-27T15:39:18.318Z,43.40
2019-04-27T15:41:53.113Z,37.53
2019-04-27T15:44:23.539Z,39.50
2019-04-27T15:46:53.939Z,41.93
2019-04-27T15:49:26.647Z,34.97
2019-04-27T15:51:58.429Z,44.20
2019-04-27T15:54:32.272Z,39.40
2019-04-27T15:57:01.383Z,34.77
2019-04-27T15:59:37.792Z,36.43
2019-04-27T16:02:05.466Z,36.50
2019-04-27T16:04:38.135Z,47.27
2019-04-27T16:07:08.457Z,35.30
2019-04-27T16:09:39.243Z,41.50
2019-04-27T16:12:12.741Z,38.83
2019-04-27T16:14:44.120Z,39.47
2019-04-27T16:17:13.874Z,40.47
2019-04-27T16:19:47.342Z,32.73
2019-04-27T16:22:18.456Z,52.50
2019-04-27T16:24:53.470Z,40.57
2019-04-27T16:27:25.822Z,44.83
2019-04-27T16:29:55.589Z,39.57
2019-04-27T16:32:25.986Z,41.10
2019-04-27T16:34:56.379Z,39.07
2019-04-27T16:37:47.986Z,47.17
2019-04-27T16:40:24.402Z,45.60
2019-04-27T16:42:54.372Z,45.50
2019-04-27T16:45:27.121Z,46.53
2019-04-27T16:47:56.549Z,43.93
2019-04-27T16:50:28.907Z,48.47
2019-04-27T16:53:01.055Z,48.33
2019-04-27T16:55:34.345Z,40.37
2019-04-27T16:58:09.727Z,44.80
2019-04-27T17:00:38.773Z,43.53
2019-04-27T17:03:11.655Z,38.93
2019-04-27T17:05:42.481Z,49.97
2019-04-27T17:08:21.484Z,42.00
2019-04-27T17:10:45.269Z,41.60
2019-04-27T17:13:18.585Z,38.77
2019-04-27T17:16:08.629Z,44.67
2019-04-27T17:18:48.959Z,42.97
2019-04-27T17:21:23.085Z,45.70
2019-04-27T17:23:51.231Z,44.20
2019-04-27T17:26:24.006Z,46.03
2019-04-27T17:29:16.141Z,44.83
2019-04-27T17:31:43.635Z,37.70
2019-04-27T17:34:14.066Z,49.47
2019-04-27T17:36:48.515Z,45.50
2019-04-27T17:39:19.274Z,42.00
2019-04-27T17:41:50.574Z,49.57
2019-04-27T17:44:23.131Z,50.23
2019-04-27T17:46:52.837Z,42.17
2019-04-27T17:49:23.263Z,45.73
2019-04-27T17:51:53.655Z,47.73
2019-04-27T17:54:24.080Z,39.37
2019-04-27T17:56:54.577Z,41.27
2019-04-27T17:59:24.945Z,38.97
2019-04-27T18:02:00.737Z,39.50
2019-04-27T18:04:28.754Z,48.93
2019-04-27T18:07:03.231Z,43.47
2019-04-27T18:09:33.508Z,42.80
2019-04-27T18:12:08.120Z,42.93
2019-04-27T18:14:39.510Z,40.47
2019-04-27T18:17:11.836Z,41.50
2019-04-27T18:19:45.586Z,37.83
2019-04-27T18:22:17.911Z,38.27
2019-04-27T18:25:03.407Z,39.80
2019-04-27T18:27:41.624Z,41.37
2019-04-27T18:30:20.703Z,45.70
2019-04-27T18:32:51.155Z,42.57
2019-04-27T18:35:26.260Z,43.37
2019-04-27T18:38:00.140Z,44.57
2019-04-27T18:40:32.216Z,57.17
2019-04-27T18:43:01.988Z,45.77
2019-04-27T18:45:31.943Z,42.23
2019-04-27T18:48:13.586Z,39.53
2019-04-27T18:51:04.433Z,55.93
2019-04-27T18:53:43.791Z,39.93
2019-04-27T18:56:14.226Z,42.40
2019-04-27T18:58:44.767Z,52.93
2019-04-27T19:01:15.225Z,40.23
2019-04-27T19:03:45.644Z,45.47
2019-04-27T19:06:16.007Z,45.70
2019-04-27T19:08:46.545Z,42.17
2019-04-27T19:11:18.671Z,43.57
2019-04-27T19:13:48.995Z,46.87
2019-04-27T19:16:22.172Z,43.60
2019-04-27T19:18:51.566Z,47.70
2019-04-27T19:21:24.469Z,49.47
2019-04-27T19:23:54.812Z,46.97
2019-04-27T19:26:32.979Z,49.10
2019-04-27T19:29:05.583Z,39.90
2019-04-27T19:31:39.773Z,47.33
2019-04-27T19:34:10.167Z,37.27
2019-04-27T19:36:40.669Z,37.93
2019-04-27T19:39:14.053Z,43.80
2019-04-27T19:41:56.896Z,39.03
2019-04-27T19:44:18.795Z,38.20
2019-04-27T19:46:49.617Z,34.10
2019-04-27T19:49:20.151Z,33.27
2019-04-27T19:51:50.819Z,37.30
2019-04-27T19:54:21.159Z,34.63
2019-04-27T19:56:51.575Z,37.77
2019-04-27T19:59:27.961Z,42.50
2019-04-27T20:02:01.047Z,36.50
2019-04-27T20:04:33.257Z,42.93
2019-04-27T20:07:03.618Z,33.83
2019-04-27T20:09:43.149Z,34.50
2019-04-27T20:12:13.798Z,35.67
2019-04-27T20:14:56.791Z,33.73
2019-04-27T20:17:31.919Z,30.83
2019-04-27T20:20:03.165Z,30.40
2019-04-27T20:22:35.903Z,34.27
2019-04-27T20:25:07.081Z,33.43
2019-04-27T20:27:46.031Z,33.87
2019-04-27T20:30:11.626Z,35.43
2019-04-27T20:32:43.985Z,32.57
2019-04-27T20:35:14.657Z,43.80
2019-04-27T20:37:45.108Z,29.97
2019-04-27T20:40:15.897Z,34.83
2019-04-27T20:42:46.249Z,32.70
2019-04-27T20:45:16.710Z,34.03
2019-04-27T20:47:47.103Z,47.97
2019-04-27T20:50:17.505Z,37.30
2019-04-27T20:52:55.979Z,38.17
2019-04-27T20:55:26.365Z,37.97
2019-04-27T20:58:02.655Z,38.10
2019-04-27T21:00:29.019Z,39.90
2019-04-27T21:03:18.442Z,36.70
2019-04-27T21:06:12.266Z,44.00
2019-04-27T21:08:43.372Z,38.90
2019-04-27T21:11:13.766Z,38.50
2019-04-27T21:13:44.176Z,34.33
2019-04-27T21:16:15.553Z,44.30
2019-04-27T21:18:45.930Z,37.87
2019-04-27T21:21:16.395Z,36.73
2019-04-27T21:23:46.837Z,34.37
2019-04-27T21:26:17.639Z,36.30
2019-04-27T21:28:48.123Z,32.40
2019-04-27T21:31:18.526Z,29.90
2019-04-27T21:33:48.918Z,30.57
2019-04-27T21:36:19.352Z,36.03
2019-04-27T21:38:51.264Z,31.23
2019-04-27T21:41:22.714Z,30.40
2019-04-27T21:43:53.490Z,27.73
2019-04-27T21:46:23.916Z,25.77
2019-04-27T21:48:54.320Z,26.73
2019-04-27T21:51:24.826Z,25.47
2019-04-27T21:54:07.662Z,26.10
2019-04-27T21:56:38.176Z,33.67
2019-04-27T21:59:08.596Z,26.07
2019-04-27T22:01:41.373Z,34.43
2019-04-27T22:04:13.750Z,28.07
2019-04-27T22:06:44.165Z,32.37
2019-04-27T22:09:15.944Z,28.73
2019-04-27T22:11:47.963Z,29.87
2019-04-27T22:14:18.352Z,31.47
2019-04-27T22:16:48.760Z,29.87
2019-04-27T22:19:20.453Z,27.20
2019-04-27T22:21:52.060Z,31.27
2019-04-27T22:24:42.796Z,36.30
2019-04-27T22:27:13.050Z,30.77
2019-04-27T22:29:43.472Z,31.30
2019-04-27T22:32:14.032Z,30.93
2019-04-27T22:34:44.463Z,32.00
2019-04-27T22:37:15.185Z,32.33
2019-04-27T22:40:09.641Z,39.53
2019-04-27T22:42:59.344Z,29.93
2019-04-27T22:45:32.380Z,39.67
2019-04-27T22:48:02.807Z,35.70
2019-04-27T22:50:33.200Z,34.37
2019-04-27T22:53:03.630Z,27.97
2019-04-27T22:55:35.716Z,30.30
2019-04-27T22:58:13.203Z,32.60
2019-04-27T23:01:01.338Z,35.63
2019-04-27T23:03:35.010Z,29.57
2019-04-27T23:06:05.404Z,32.53
2019-04-27T23:08:36.207Z,29.83
2019-04-27T23:11:07.066Z,31.97
2019-04-27T23:13:37.490Z,34.57
2019-04-27T23:16:11.608Z,30.63
2019-04-27T23:18:41.981Z,33.23
2019-04-27T23:21:12.552Z,31.50
2019-04-27T23:23:42.890Z,34.13
2019-04-27T23:26:15.538Z,36.00
2019-04-27T23:28:46.246Z,32.10
2019-04-27T23:31:26.512Z,32.10
2019-04-27T23:33:57.012Z,31.33
2019-04-27T23:36:27.648Z,37.67
2019-04-27T23:38:58.024Z,28.93
2019-04-27T23:41:29.990Z,38.13
2019-04-27T23:44:00.348Z,40.73
2019-04-27T23:46:32.238Z,34.40
2019-04-27T23:49:02.621Z,34.07
2019-04-27T23:51:56.470Z,34.23
2019-04-27T23:54:26.898Z,29.43
2019-04-27T23:56:57.286Z,34.23
2019-04-27T23:59:27.702Z,30.00
